Time;durP1;ratioP1;P1;durP2;ratioP2;P2;SDS_P1;SDS_P2;PMS_P1;PMS_P2;Temp;Humidity;BMP_temperature;BMP_pressure;BME280_temperature;BME280_humidity;BME280_pressure;Samples;Min_cycle;Max_cycle;Signal;HPM_P1;HPM_P2
2021/09/09 00:02:19;;;;;;;21.02;13.63;;;;;;;;;;5013557;28;20026;-63
2021/09/09 00:04:45;;;;;;;23.48;14.55;;;;;;;;;;5013859;28;20026;-63
2021/09/09 00:07:10;;;;;;;21.20;14.45;;;;;;;;;;5013436;28;20038;-62
2021/09/09 00:09:35;;;;;;;22.13;13.48;;;;;;;;;;5013618;28;20081;-63
2021/09/09 00:12:00;;;;;;;21.10;13.98;;;;;;;;;;5013492;28;20042;-63
2021/09/09 00:14:26;;;;;;;22.48;14.30;;;;;;;;;;5013633;28;20029;-63
2021/09/09 00:16:51;;;;;;;21.90;13.98;;;;;;;;;;5013480;28;20040;-63
2021/09/09 00:19:16;;;;;;;22.98;14.73;;;;;;;;;;5013818;28;20018;-62
2021/09/09 00:21:41;;;;;;;23.02;14.00;;;;;;;;;;5012045;28;20041;-63
2021/09/09 00:24:07;;;;;;;20.58;13.90;;;;;;;;;;5013720;28;20022;-63
2021/09/09 00:26:32;;;;;;;22.98;14.43;;;;;;;;;;5012664;28;20034;-63
2021/09/09 00:28:57;;;;;;;23.45;14.32;;;;;;;;;;5013762;28;20376;-63
2021/09/09 00:31:22;;;;;;;21.95;14.45;;;;;;;;;;5013272;28;20053;-63
2021/09/09 00:33:47;;;;;;;22.00;13.20;;;;;;;;;;5013665;28;20024;-63
2021/09/09 00:36:13;;;;;;;24.45;14.00;;;;;;;;;;5012959;28;20045;-63
2021/09/09 00:38:38;;;;;;;20.38;13.88;;;;;;;;;;5013424;28;20029;-63
2021/09/09 00:41:03;;;;;;;21.92;14.27;;;;;;;;;;5011864;28;20029;-63
2021/09/09 00:43:28;;;;;;;22.73;14.48;;;;;;;;;;5013610;28;20041;-63
2021/09/09 00:45:54;;;;;;;18.45;13.27;;;;;;;;;;5009601;28;20028;-63
2021/09/09 00:48:19;;;;;;;22.35;13.82;;;;;;;;;;5021697;28;20054;-63
2021/09/09 00:50:45;;;;;;;23.80;14.23;;;;;;;;;;5012893;28;20041;-63
2021/09/09 00:53:10;;;;;;;23.08;14.25;;;;;;;;;;5013110;28;20030;-63
2021/09/09 00:55:36;;;;;;;22.38;14.27;;;;;;;;;;5012807;28;20034;-63
2021/09/09 00:58:01;;;;;;;21.15;13.98;;;;;;;;;;5011868;28;20435;-63
2021/09/09 01:00:26;;;;;;;22.10;14.80;;;;;;;;;;5011572;28;20029;-63
2021/09/09 01:02:51;;;;;;;19.98;14.35;;;;;;;;;;5013126;28;20190;-62
2021/09/09 01:05:16;;;;;;;23.67;14.23;;;;;;;;;;5011467;28;20026;-63
2021/09/09 01:07:42;;;;;;;20.23;14.57;;;;;;;;;;5013019;28;20021;-63
2021/09/09 01:10:07;;;;;;;24.33;14.60;;;;;;;;;;5011223;28;20050;-63
2021/09/09 01:12:32;;;;;;;24.30;14.18;;;;;;;;;;5013109;28;20045;-62
2021/09/09 01:14:58;;;;;;;21.85;13.85;;;;;;;;;;5012800;28;20113;-63
2021/09/09 01:17:23;;;;;;;24.42;13.93;;;;;;;;;;5012498;28;20034;-63
2021/09/09 01:19:48;;;;;;;22.05;14.60;;;;;;;;;;5011667;28;20461;-63
2021/09/09 01:22:13;;;;;;;25.35;13.45;;;;;;;;;;5011201;28;20023;-63
2021/09/09 01:24:39;;;;;;;23.55;14.48;;;;;;;;;;5012925;28;20452;-62
2021/09/09 01:27:05;;;;;;;21.83;15.55;;;;;;;;;;5012481;28;20030;-63
2021/09/09 01:29:32;;;;;;;24.23;14.80;;;;;;;;;;5012796;28;20018;-63
2021/09/09 01:31:57;;;;;;;19.88;14.48;;;;;;;;;;5012398;28;20158;-62
2021/09/09 01:34:22;;;;;;;27.27;15.32;;;;;;;;;;5012578;28;20057;-63
2021/09/09 01:36:48;;;;;;;21.98;15.65;;;;;;;;;;5012128;28;20092;-61
2021/09/09 01:39:13;;;;;;;26.90;15.38;;;;;;;;;;5016560;28;20026;-63
2021/09/09 01:41:38;;;;;;;23.25;15.23;;;;;;;;;;5016155;28;20091;-63
2021/09/09 01:44:04;;;;;;;21.67;14.15;;;;;;;;;;5016710;28;20113;-61
2021/09/09 01:46:29;;;;;;;20.60;15.02;;;;;;;;;;5016301;28;20030;-61
2021/09/09 01:48:54;;;;;;;19.33;13.73;;;;;;;;;;5016074;28;20091;-63
2021/09/09 01:51:19;;;;;;;21.38;14.65;;;;;;;;;;5016301;28;20029;-64
2021/09/09 01:53:45;;;;;;;29.02;16.27;;;;;;;;;;4999076;28;20018;-63
2021/09/09 01:56:10;;;;;;;26.58;15.98;;;;;;;;;;5015786;28;20054;-63
2021/09/09 01:58:35;;;;;;;32.88;16.42;;;;;;;;;;5016435;28;20032;-63
2021/09/09 02:01:00;;;;;;;26.60;16.33;;;;;;;;;;5015905;28;20084;-63
2021/09/09 02:03:26;;;;;;;28.20;16.92;;;;;;;;;;5016284;28;20475;-63
2021/09/09 02:05:51;;;;;;;24.02;15.60;;;;;;;;;;5015678;28;20436;-63
2021/09/09 02:08:16;;;;;;;28.10;16.63;;;;;;;;;;5014923;28;20026;-63
2021/09/09 02:10:41;;;;;;;24.10;14.30;;;;;;;;;;5015988;28;20475;-63
2021/09/09 02:13:07;;;;;;;23.88;14.98;;;;;;;;;;5015957;28;20468;-63
2021/09/09 02:15:32;;;;;;;25.67;16.20;;;;;;;;;;5015382;28;20069;-63
2021/09/09 02:17:57;;;;;;;26.42;15.55;;;;;;;;;;5016035;28;20028;-64
2021/09/09 02:20:22;;;;;;;27.80;16.83;;;;;;;;;;5015501;28;20037;-63
2021/09/09 02:22:48;;;;;;;27.20;17.08;;;;;;;;;;5015844;28;20033;-63
2021/09/09 02:25:13;;;;;;;31.02;15.98;;;;;;;;;;5015766;28;20021;-63
2021/09/09 02:27:38;;;;;;;26.30;15.68;;;;;;;;;;5015864;28;20380;-62
2021/09/09 02:30:03;;;;;;;21.80;15.10;;;;;;;;;;5015554;28;20345;-64
2021/09/09 02:32:29;;;;;;;25.92;15.02;;;;;;;;;;5015771;28;20369;-63
2021/09/09 02:34:54;;;;;;;25.20;15.13;;;;;;;;;;5015763;28;20113;-63
2021/09/09 02:37:19;;;;;;;24.35;15.02;;;;;;;;;;5015239;28;20144;-63
2021/09/09 02:39:47;;;;;;;22.58;16.10;;;;;;;;;;5015444;28;20022;-63
2021/09/09 02:42:12;;;;;;;24.63;15.75;;;;;;;;;;5015108;28;20038;-63
2021/09/09 02:44:37;;;;;;;27.13;14.85;;;;;;;;;;5015675;28;20109;-63
2021/09/09 02:47:03;;;;;;;26.05;16.20;;;;;;;;;;5015113;28;20069;-63
2021/09/09 02:49:28;;;;;;;28.85;16.63;;;;;;;;;;5014864;28;20022;-63
2021/09/09 02:51:53;;;;;;;26.35;16.83;;;;;;;;;;5013641;28;20452;-64
2021/09/09 02:54:19;;;;;;;27.30;16.75;;;;;;;;;;5015437;28;20029;-63
2021/09/09 02:56:44;;;;;;;33.35;17.30;;;;;;;;;;5014955;28;20064;-63
2021/09/09 02:59:09;;;;;;;25.55;17.08;;;;;;;;;;5015319;28;20499;-63
2021/09/09 03:01:34;;;;;;;27.67;17.70;;;;;;;;;;5014934;28;20045;-61
2021/09/09 03:03:59;;;;;;;27.52;17.25;;;;;;;;;;5015452;28;20018;-63
2021/09/09 03:06:25;;;;;;;26.80;17.20;;;;;;;;;;5013252;28;20112;-63
2021/09/09 03:08:50;;;;;;;27.98;16.27;;;;;;;;;;5014965;28;20057;-63
2021/09/09 03:11:15;;;;;;;28.58;18.63;;;;;;;;;;5014639;28;20388;-63
2021/09/09 03:13:40;;;;;;;30.45;17.58;;;;;;;;;;5014992;28;20403;-63
2021/09/09 03:16:06;;;;;;;30.58;18.92;;;;;;;;;;5014448;28;20054;-63
2021/09/09 03:18:31;;;;;;;26.25;16.73;;;;;;;;;;5014911;28;20045;-63
2021/09/09 03:20:56;;;;;;;32.78;17.63;;;;;;;;;;5014304;28;20089;-63
2021/09/09 03:23:21;;;;;;;29.02;17.02;;;;;;;;;;5013456;28;20022;-63
2021/09/09 03:25:46;;;;;;;30.20;18.50;;;;;;;;;;5014462;28;20026;-63
2021/09/09 03:28:12;;;;;;;28.05;17.05;;;;;;;;;;5014734;28;20025;-63
2021/09/09 03:30:37;;;;;;;30.15;18.25;;;;;;;;;;5014153;28;20485;-63
2021/09/09 03:33:02;;;;;;;33.22;19.60;;;;;;;;;;5014701;28;20026;-63
2021/09/09 03:35:27;;;;;;;28.13;19.02;;;;;;;;;;5014112;28;20489;-63
2021/09/09 03:37:53;;;;;;;32.30;20.02;;;;;;;;;;5014355;28;20333;-63
2021/09/09 03:40:18;;;;;;;37.25;21.38;;;;;;;;;;5013960;28;20018;-63
2021/09/09 03:42:43;;;;;;;38.78;21.98;;;;;;;;;;5014276;28;20037;-63
2021/09/09 03:45:09;;;;;;;31.85;21.52;;;;;;;;;;5013823;28;20022;-64
2021/09/09 03:47:34;;;;;;;35.47;20.70;;;;;;;;;;5014195;28;20407;-63
2021/09/09 03:49:59;;;;;;;35.65;20.83;;;;;;;;;;5012786;28;20028;-63
2021/09/09 03:52:25;;;;;;;30.83;20.40;;;;;;;;;;5013356;28;20108;-63
2021/09/09 03:54:50;;;;;;;35.10;20.80;;;;;;;;;;5013934;28;20105;-63
2021/09/09 03:57:15;;;;;;;31.27;19.77;;;;;;;;;;5013234;28;20092;-63
2021/09/09 03:59:40;;;;;;;33.00;18.67;;;;;;;;;;5012824;28;20022;-64
2021/09/09 04:02:06;;;;;;;32.15;19.77;;;;;;;;;;5030267;28;20034;-62
2021/09/09 04:04:31;;;;;;;28.30;17.70;;;;;;;;;;5033834;28;20436;-62
2021/09/09 04:06:57;;;;;;;34.53;19.85;;;;;;;;;;5033229;28;20033;-62
2021/09/09 04:09:22;;;;;;;30.73;20.98;;;;;;;;;;5033601;28;20073;-62
2021/09/09 04:11:47;;;;;;;37.42;21.52;;;;;;;;;;5033172;28;20096;-62
2021/09/09 04:14:13;;;;;;;38.58;21.10;;;;;;;;;;5033398;28;20045;-62
2021/09/09 04:16:38;;;;;;;34.83;19.13;;;;;;;;;;5018480;28;20488;-62
2021/09/09 04:19:04;;;;;;;31.40;19.42;;;;;;;;;;5013683;28;20052;-62
2021/09/09 04:21:29;;;;;;;33.42;20.15;;;;;;;;;;5013147;28;20480;-62
2021/09/09 04:23:54;;;;;;;32.65;18.88;;;;;;;;;;5013517;28;20486;-62
2021/09/09 04:26:19;;;;;;;34.20;18.85;;;;;;;;;;5012891;28;20049;-62
2021/09/09 04:28:45;;;;;;;35.90;18.23;;;;;;;;;;5013314;28;20033;-62
2021/09/09 04:31:10;;;;;;;33.30;19.30;;;;;;;;;;5022438;28;20109;-62
2021/09/09 04:33:35;;;;;;;34.50;19.85;;;;;;;;;;5033091;28;20110;-62
2021/09/09 04:36:00;;;;;;;32.90;19.25;;;;;;;;;;5032597;28;20112;-62
2021/09/09 04:38:25;;;;;;;33.95;19.85;;;;;;;;;;5031864;28;20029;-62
2021/09/09 04:40:51;;;;;;;30.10;18.77;;;;;;;;;;5032708;28;20471;-62
2021/09/09 04:43:16;;;;;;;32.60;20.00;;;;;;;;;;5032828;28;20483;-62
2021/09/09 04:45:41;;;;;;;31.20;20.02;;;;;;;;;;5026984;28;20084;-62
2021/09/09 04:48:06;;;;;;;37.83;21.30;;;;;;;;;;5013137;28;20072;-62
2021/09/09 04:50:32;;;;;;;38.28;21.98;;;;;;;;;;5012540;28;20096;-62
2021/09/09 04:52:57;;;;;;;33.28;20.05;;;;;;;;;;5013275;28;20021;-62
2021/09/09 04:55:22;;;;;;;29.58;19.30;;;;;;;;;;5015699;28;20026;-62
2021/09/09 04:57:47;;;;;;;37.70;19.58;;;;;;;;;;5032654;28;20014;-62
2021/09/09 05:00:13;;;;;;;31.92;20.02;;;;;;;;;;5032066;28;20022;-62
2021/09/09 05:02:38;;;;;;;30.17;20.15;;;;;;;;;;5032833;28;20032;-62
2021/09/09 05:05:03;;;;;;;34.30;21.67;;;;;;;;;;5032313;28;20029;-62
2021/09/09 05:07:29;;;;;;;36.67;21.33;;;;;;;;;;5032570;28;20025;-62
2021/09/09 05:09:54;;;;;;;41.15;23.02;;;;;;;;;;5032315;28;20041;-62
2021/09/09 05:12:19;;;;;;;34.03;21.00;;;;;;;;;;5012978;28;20104;-62
2021/09/09 05:14:44;;;;;;;32.85;17.98;;;;;;;;;;5011357;28;20101;-62
2021/09/09 05:17:10;;;;;;;29.27;18.02;;;;;;;;;;5029935;28;20103;-62
2021/09/09 05:19:35;;;;;;;28.75;17.42;;;;;;;;;;5031097;28;20013;-62
2021/09/09 05:22:01;;;;;;;32.30;19.83;;;;;;;;;;5032213;28;20061;-62
2021/09/09 05:24:26;;;;;;;34.03;20.13;;;;;;;;;;5032525;28;20062;-62
2021/09/09 05:26:51;;;;;;;38.60;21.75;;;;;;;;;;5031929;28;20091;-62
2021/09/09 05:29:16;;;;;;;37.90;21.02;;;;;;;;;;5031330;28;20014;-62
2021/09/09 05:31:42;;;;;;;28.25;18.42;;;;;;;;;;5032132;28;20042;-62
2021/09/09 05:34:07;;;;;;;27.88;18.40;;;;;;;;;;5032552;28;20155;-62
2021/09/09 05:36:32;;;;;;;28.83;17.58;;;;;;;;;;5031972;28;20060;-62
2021/09/09 05:38:57;;;;;;;32.85;17.27;;;;;;;;;;5032721;28;20014;-62
2021/09/09 05:41:23;;;;;;;30.63;17.13;;;;;;;;;;5032224;28;20515;-62
2021/09/09 05:43:48;;;;;;;32.05;16.08;;;;;;;;;;5032627;28;20017;-62
2021/09/09 05:46:13;;;;;;;21.98;14.35;;;;;;;;;;5022252;28;20030;-62
2021/09/09 05:48:38;;;;;;;29.77;13.93;;;;;;;;;;5012800;28;20116;-62
2021/09/09 05:51:05;;;;;;;22.80;14.18;;;;;;;;;;5010496;28;20050;-62
2021/09/09 05:53:30;;;;;;;24.88;14.95;;;;;;;;;;5012657;28;20022;-61
2021/09/09 05:55:55;;;;;;;25.15;15.15;;;;;;;;;;5012089;28;20030;-62
2021/09/09 05:58:21;;;;;;;21.92;14.60;;;;;;;;;;5012637;28;20125;-62
2021/09/09 06:00:46;;;;;;;25.67;14.73;;;;;;;;;;5012067;28;20026;-62
2021/09/09 06:03:12;;;;;;;25.13;14.20;;;;;;;;;;5011289;28;20022;-62
2021/09/09 06:05:38;;;;;;;23.98;13.40;;;;;;;;;;4994384;28;20037;-62
2021/09/09 06:08:03;;;;;;;21.65;14.10;;;;;;;;;;5012653;28;20018;-62
2021/09/09 06:10:29;;;;;;;21.77;13.77;;;;;;;;;;5010725;28;20037;-62
2021/09/09 06:12:54;;;;;;;23.23;13.10;;;;;;;;;;5012376;28;20571;-62
2021/09/09 06:15:19;;;;;;;19.15;13.68;;;;;;;;;;5011896;28;20363;-62
2021/09/09 06:17:44;;;;;;;19.45;12.27;;;;;;;;;;5012329;28;20025;-62
2021/09/09 06:20:10;;;;;;;16.58;12.43;;;;;;;;;;5013333;28;20468;-62
2021/09/09 06:22:35;;;;;;;20.40;13.05;;;;;;;;;;5032378;28;20376;-62
2021/09/09 06:25:01;;;;;;;22.83;13.38;;;;;;;;;;5033509;28;20490;-63
2021/09/09 06:27:26;;;;;;;22.65;13.95;;;;;;;;;;5015968;28;20107;-63
2021/09/09 06:29:51;;;;;;;22.35;13.85;;;;;;;;;;5016139;28;20018;-63
2021/09/09 06:32:16;;;;;;;21.45;13.80;;;;;;;;;;5034318;28;20507;-63
2021/09/09 06:34:42;;;;;;;17.13;12.38;;;;;;;;;;5035657;28;20022;-63
2021/09/09 06:37:07;;;;;;;18.48;11.38;;;;;;;;;;5016517;28;20048;-63
2021/09/09 06:39:32;;;;;;;16.23;11.40;;;;;;;;;;5014326;28;20121;-62
2021/09/09 06:41:57;;;;;;;16.05;12.10;;;;;;;;;;5015153;28;20062;-62
2021/09/09 06:44:23;;;;;;;17.05;12.05;;;;;;;;;;5015547;28;20030;-63
2021/09/09 06:46:48;;;;;;;20.63;12.43;;;;;;;;;;5015159;28;20034;-62
2021/09/09 06:49:13;;;;;;;18.80;12.80;;;;;;;;;;5015392;28;20471;-62
2021/09/09 06:51:38;;;;;;;18.40;13.75;;;;;;;;;;5028451;28;20551;-62
2021/09/09 06:54:04;;;;;;;19.70;12.98;;;;;;;;;;5035230;28;20017;-63
2021/09/09 06:56:29;;;;;;;19.70;13.48;;;;;;;;;;5033225;28;20046;-62
2021/09/09 06:58:54;;;;;;;22.33;13.55;;;;;;;;;;5035261;28;20026;-62
2021/09/09 07:01:20;;;;;;;22.67;14.07;;;;;;;;;;5023974;28;20393;-62
2021/09/09 07:03:45;;;;;;;26.77;13.82;;;;;;;;;;5014117;28;20022;-62
2021/09/09 07:06:10;;;;;;;23.35;14.30;;;;;;;;;;5014822;28;20037;-63
2021/09/09 07:08:35;;;;;;;28.17;14.65;;;;;;;;;;5014916;28;20120;-63
2021/09/09 07:11:01;;;;;;;22.98;13.20;;;;;;;;;;5014649;28;20037;-63
2021/09/09 07:13:28;;;;;;;20.33;13.40;;;;;;;;;;5013846;28;20037;-63
2021/09/09 07:15:55;;;;;;;18.13;12.35;;;;;;;;;;5014336;28;20088;-63
2021/09/09 07:18:20;;;;;;;18.15;13.15;;;;;;;;;;5014863;28;20435;-63
2021/09/09 07:20:46;;;;;;;25.38;15.20;;;;;;;;;;5020739;28;20049;-63
2021/09/09 07:23:11;;;;;;;21.35;13.80;;;;;;;;;;5034738;28;20026;-63
2021/09/09 07:25:36;;;;;;;23.88;13.55;;;;;;;;;;5034060;28;20080;-62
2021/09/09 07:28:01;;;;;;;24.75;14.35;;;;;;;;;;5034461;28;20117;-63
2021/09/09 07:30:27;;;;;;;26.13;13.88;;;;;;;;;;5034088;28;20044;-63
2021/09/09 07:32:52;;;;;;;23.70;14.27;;;;;;;;;;5034379;28;20022;-63
2021/09/09 07:35:17;;;;;;;23.57;13.43;;;;;;;;;;5033898;28;20032;-63
2021/09/09 07:37:44;;;;;;;26.73;13.30;;;;;;;;;;5016534;28;20659;-63
2021/09/09 07:40:10;;;;;;;24.95;14.30;;;;;;;;;;5033855;28;20018;-63
2021/09/09 07:42:35;;;;;;;31.48;14.15;;;;;;;;;;5034412;28;20087;-63
2021/09/09 07:45:00;;;;;;;26.45;13.80;;;;;;;;;;5033650;28;20495;-64
2021/09/09 07:47:26;;;;;;;24.80;14.57;;;;;;;;;;5033523;28;20017;-63
2021/09/09 07:49:51;;;;;;;20.00;12.98;;;;;;;;;;5034202;28;20040;-63
2021/09/09 07:52:16;;;;;;;18.42;12.18;;;;;;;;;;5015095;28;20033;-63
2021/09/09 07:54:41;;;;;;;23.88;13.70;;;;;;;;;;5014103;28;20428;-63
2021/09/09 07:57:07;;;;;;;21.27;11.90;;;;;;;;;;5013755;28;20033;-63
2021/09/09 07:59:32;;;;;;;19.20;11.80;;;;;;;;;;5014142;28;20041;-63
2021/09/09 08:01:57;;;;;;;14.82;9.80;;;;;;;;;;5013834;28;20121;-64
2021/09/09 08:04:24;;;;;;;15.50;9.70;;;;;;;;;;5014031;28;20038;-63
2021/09/09 08:06:49;;;;;;;16.75;9.73;;;;;;;;;;5028179;28;20391;-63
2021/09/09 08:09:14;;;;;;;17.30;9.77;;;;;;;;;;5033617;28;20045;-63
2021/09/09 08:11:39;;;;;;;14.98;10.10;;;;;;;;;;5033289;28;20052;-63
2021/09/09 08:14:05;;;;;;;14.63;9.20;;;;;;;;;;5033625;28;20032;-63
2021/09/09 08:16:30;;;;;;;14.38;9.18;;;;;;;;;;5033138;28;20064;-63
2021/09/09 08:18:55;;;;;;;14.82;8.90;;;;;;;;;;5033334;28;20108;-64
2021/09/09 08:21:20;;;;;;;20.03;9.87;;;;;;;;;;5033107;28;20083;-63
2021/09/09 08:23:46;;;;;;;12.73;8.88;;;;;;;;;;5033452;28;20308;-64
2021/09/09 08:26:11;;;;;;;11.57;9.00;;;;;;;;;;5032933;28;20160;-64
2021/09/09 08:28:36;;;;;;;15.32;8.68;;;;;;;;;;5032066;28;20025;-64
2021/09/09 08:31:02;;;;;;;17.38;9.50;;;;;;;;;;5032938;28;20104;-63
2021/09/09 08:33:27;;;;;;;12.95;7.50;;;;;;;;;;5033173;28;20057;-64
2021/09/09 08:35:52;;;;;;;11.77;7.97;;;;;;;;;;5025756;28;20061;-64
2021/09/09 08:38:18;;;;;;;12.73;8.27;;;;;;;;;;5013322;28;20032;-64
2021/09/09 08:40:43;;;;;;;13.00;8.35;;;;;;;;;;5012945;28;20105;-64
2021/09/09 08:43:08;;;;;;;15.90;8.20;;;;;;;;;;5013459;28;20030;-64
2021/09/09 08:45:34;;;;;;;12.82;7.90;;;;;;;;;;5017334;28;20388;-64
2021/09/09 08:48:00;;;;;;;13.80;8.02;;;;;;;;;;5032357;28;20048;-63
2021/09/09 08:50:25;;;;;;;14.88;8.80;;;;;;;;;;5029308;28;20030;-64
2021/09/09 08:52:50;;;;;;;11.80;7.82;;;;;;;;;;5011930;28;20033;-64
2021/09/09 08:55:16;;;;;;;12.18;8.35;;;;;;;;;;5015040;28;20034;-64
2021/09/09 08:57:41;;;;;;;12.30;9.15;;;;;;;;;;5033025;28;20479;-64
2021/09/09 09:00:07;;;;;;;15.10;9.07;;;;;;;;;;5032642;28;20053;-64
2021/09/09 09:02:45;;;;;;;13.32;8.25;;;;;;;;;;5032875;28;20108;-64
2021/09/09 09:05:10;;;;;;;15.57;8.68;;;;;;;;;;5032612;28;20071;-64
2021/09/09 09:07:36;;;;;;;14.90;8.13;;;;;;;;;;5031562;28;20450;-64
2021/09/09 09:10:05;;;;;;;12.23;8.48;;;;;;;;;;5032309;28;20561;-64
2021/09/09 09:12:43;;;;;;;12.55;8.43;;;;;;;;;;5032952;28;20093;-64
2021/09/09 09:15:09;;;;;;;18.75;8.80;;;;;;;;;;5029859;28;20029;-63
2021/09/09 09:17:50;;;;;;;11.75;7.57;;;;;;;;;;5012933;28;20018;-64
2021/09/09 09:20:16;;;;;;;13.25;8.27;;;;;;;;;;5011252;28;20022;-64
2021/09/09 09:22:43;;;;;;;10.88;8.07;;;;;;;;;;5013074;28;20025;-64
2021/09/09 09:25:08;;;;;;;14.63;8.15;;;;;;;;;;5012437;28;20108;-64
2021/09/09 09:27:33;;;;;;;14.65;8.43;;;;;;;;;;5012824;28;20146;-64
2021/09/09 09:30:09;;;;;;;15.18;9.43;;;;;;;;;;5011382;28;20109;-63
2021/09/09 09:32:35;;;;;;;13.05;8.30;;;;;;;;;;5012544;28;20034;-64
2021/09/09 09:35:07;;;;;;;18.05;9.15;;;;;;;;;;5011574;28;20087;-63
2021/09/09 09:37:32;;;;;;;15.02;8.10;;;;;;;;;;5012506;28;20053;-64
2021/09/09 09:39:57;;;;;;;16.73;9.00;;;;;;;;;;5012539;28;20018;-63
2021/09/09 09:42:25;;;;;;;18.08;8.48;;;;;;;;;;5011276;28;20030;-64
2021/09/09 09:44:50;;;;;;;16.17;8.50;;;;;;;;;;5013111;28;20056;-63
2021/09/09 09:47:19;;;;;;;19.65;8.13;;;;;;;;;;5012462;28;20054;-63
2021/09/09 09:49:48;;;;;;;14.40;8.48;;;;;;;;;;5012975;28;20065;-63
2021/09/09 09:52:20;;;;;;;15.18;7.65;;;;;;;;;;5012165;28;20034;-64
2021/09/09 09:54:52;;;;;;;12.18;7.75;;;;;;;;;;5012375;28;20060;-64
2021/09/09 09:57:17;;;;;;;10.95;7.53;;;;;;;;;;5012294;28;20084;-64
2021/09/09 09:59:43;;;;;;;13.50;8.07;;;;;;;;;;5013911;28;20029;-63
2021/09/09 10:02:10;;;;;;;16.93;7.77;;;;;;;;;;5016003;28;20044;-63
2021/09/09 10:04:35;;;;;;;12.57;8.43;;;;;;;;;;5016334;28;20262;-63
2021/09/09 10:07:00;;;;;;;13.32;7.82;;;;;;;;;;5015900;28;20030;-64
2021/09/09 10:09:27;;;;;;;15.20;8.02;;;;;;;;;;5016103;28;20050;-63
2021/09/09 10:11:52;;;;;;;11.07;7.93;;;;;;;;;;5014730;28;20042;-64
2021/09/09 10:14:21;;;;;;;13.30;7.90;;;;;;;;;;5016273;28;20469;-64
2021/09/09 10:16:46;;;;;;;15.48;7.90;;;;;;;;;;5015912;28;20050;-64
2021/09/09 10:19:12;;;;;;;13.23;7.03;;;;;;;;;;5016198;28;20079;-64
2021/09/09 10:21:46;;;;;;;11.43;7.72;;;;;;;;;;5029026;28;20120;-64
2021/09/09 10:24:13;;;;;;;13.25;8.23;;;;;;;;;;5036027;28;20056;-64
2021/09/09 10:26:38;;;;;;;15.82;7.95;;;;;;;;;;5021915;28;20052;-63
2021/09/09 10:29:08;;;;;;;14.00;8.10;;;;;;;;;;5015983;28;20097;-64
2021/09/09 10:31:33;;;;;;;;;;;;;;;;;;5016018;28;20040;-63
2021/09/09 10:33:58;;;;;;;10.55;7.95;;;;;;;;;;5015842;28;19905;-64
2021/09/09 10:36:38;;;;;;;11.60;8.05;;;;;;;;;;5026497;28;20140;-63
2021/09/09 10:39:03;;;;;;;;;;;;;;;;;;5034924;28;20033;-63
2021/09/09 10:41:28;;;;;;;16.03;7.90;;;;;;;;;;5035180;28;19916;-64
2021/09/09 10:43:56;;;;;;;13.68;8.02;;;;;;;;;;5035524;28;20776;-64
2021/09/09 10:46:23;;;;;;;17.17;7.85;;;;;;;;;;5022595;28;20034;-64
2021/09/09 10:49:03;;;;;;;11.60;7.35;;;;;;;;;;5014241;28;20025;-64
2021/09/09 10:51:28;;;;;;;12.98;8.23;;;;;;;;;;5027202;28;20037;-64
2021/09/09 10:53:54;;;;;;;12.15;8.10;;;;;;;;;;5035210;28;20075;-63
2021/09/09 10:56:39;;;;;;;14.57;8.57;;;;;;;;;;5034670;28;20045;-64
2021/09/09 10:59:11;;;;;;;11.75;8.38;;;;;;;;;;5034724;28;20029;-64
2021/09/09 11:01:43;;;;;;;11.88;7.72;;;;;;;;;;5034712;28;20040;-64
2021/09/09 11:04:24;;;;;;;12.63;8.10;;;;;;;;;;5035105;28;20456;-64
2021/09/09 11:06:49;;;;;;;13.63;8.13;;;;;;;;;;5034736;28;20025;-64
2021/09/09 11:09:14;;;;;;;14.80;8.40;;;;;;;;;;5033539;28;20479;-64
2021/09/09 11:11:45;;;;;;;13.63;8.30;;;;;;;;;;5020248;28;20026;-64
2021/09/09 11:14:10;;;;;;;13.43;8.40;;;;;;;;;;5015413;28;20389;-64
2021/09/09 11:16:36;;;;;;;11.98;8.18;;;;;;;;;;5014558;28;20038;-64
2021/09/09 11:19:02;;;;;;;14.48;8.38;;;;;;;;;;5013933;28;20380;-64
2021/09/09 11:21:31;;;;;;;13.98;7.57;;;;;;;;;;5013099;28;20457;-64
2021/09/09 11:24:01;;;;;;;11.57;7.97;;;;;;;;;;5014782;28;20025;-64
2021/09/09 11:26:27;;;;;;;11.80;8.43;;;;;;;;;;5024810;28;20543;-64
2021/09/09 11:28:52;;;;;;;16.48;8.18;;;;;;;;;;5034715;28;20159;-64
2021/09/09 11:31:21;;;;;;;11.05;8.60;;;;;;;;;;5033990;28;20057;-64
2021/09/09 11:33:47;;;;;;;13.43;8.07;;;;;;;;;;5034379;28;20112;-64
2021/09/09 11:36:13;;;;;;;11.00;8.32;;;;;;;;;;5022638;28;20169;-64
2021/09/09 11:38:38;;;;;;;14.32;8.27;;;;;;;;;;5014332;28;20022;-64
2021/09/09 11:41:13;;;;;;;13.25;7.85;;;;;;;;;;5014220;28;20041;-64
2021/09/09 11:43:39;;;;;;;10.32;6.15;;;;;;;;;;5014522;28;20026;-64
2021/09/09 11:46:04;;;;;;;10.45;6.50;;;;;;;;;;5013683;28;20459;-65
2021/09/09 11:48:29;;;;;;;10.40;6.15;;;;;;;;;;5014335;28;20057;-64
2021/09/09 11:50:55;;;;;;;10.03;6.40;;;;;;;;;;5013623;28;20034;-64
2021/09/09 11:53:21;;;;;;;15.77;7.25;;;;;;;;;;5012781;28;20331;-64
2021/09/09 11:55:46;;;;;;;14.63;6.72;;;;;;;;;;5014056;28;20041;-64
2021/09/09 11:58:29;;;;;;;14.52;6.65;;;;;;;;;;5013040;28;20362;-64
2021/09/09 12:00:54;;;;;;;12.90;6.97;;;;;;;;;;5013964;28;20449;-64
2021/09/09 12:03:19;;;;;;;13.60;7.30;;;;;;;;;;5014205;28;20046;-64
2021/09/09 12:05:44;;;;;;;10.75;6.53;;;;;;;;;;5012547;28;20060;-64
2021/09/09 12:08:10;;;;;;;12.27;6.85;;;;;;;;;;5013926;28;20084;-64
2021/09/09 12:10:35;;;;;;;11.32;6.47;;;;;;;;;;5013651;28;20041;-64
2021/09/09 12:13:00;;;;;;;11.55;6.72;;;;;;;;;;5012758;28;20028;-64
2021/09/09 12:15:25;;;;;;;11.15;7.13;;;;;;;;;;5013622;28;20030;-65
2021/09/09 12:17:51;;;;;;;15.23;6.32;;;;;;;;;;5013819;28;20412;-64
2021/09/09 12:20:24;;;;;;;12.90;6.88;;;;;;;;;;5013326;28;20054;-64
2021/09/09 12:22:50;;;;;;;14.15;6.90;;;;;;;;;;5011722;28;20029;-64
2021/09/09 12:25:19;;;;;;;10.57;7.03;;;;;;;;;;5013586;28;20080;-64
2021/09/09 12:27:59;;;;;;;10.23;7.07;;;;;;;;;;5013712;28;20482;-64
2021/09/09 12:30:25;;;;;;;11.52;6.90;;;;;;;;;;5013403;28;20030;-63
2021/09/09 12:32:50;;;;;;;11.77;7.40;;;;;;;;;;5013651;28;20027;-62
2021/09/09 12:35:19;;;;;;;15.18;8.38;;;;;;;;;;5011885;28;20099;-62
2021/09/09 12:37:45;;;;;;;17.65;8.65;;;;;;;;;;5013539;28;20037;-62
2021/09/09 12:40:10;;;;;;;11.55;7.30;;;;;;;;;;5011788;28;20025;-62
2021/09/09 12:42:39;;;;;;;13.80;8.27;;;;;;;;;;5012270;28;20036;-62
2021/09/09 12:45:08;;;;;;;14.98;8.27;;;;;;;;;;5012907;28;20013;-63
2021/09/09 12:47:33;;;;;;;13.07;7.53;;;;;;;;;;5012234;28;20049;-62
2021/09/09 12:50:18;;;;;;;14.15;8.45;;;;;;;;;;5013392;28;20503;-62
2021/09/09 12:52:53;;;;;;;13.20;7.75;;;;;;;;;;5013038;28;20378;-63
2021/09/09 12:55:18;;;;;;;14.60;6.95;;;;;;;;;;5012779;28;20421;-63
2021/09/09 12:57:43;;;;;;;15.23;7.10;;;;;;;;;;5013254;28;20037;-63
2021/09/09 13:00:09;;;;;;;13.95;6.97;;;;;;;;;;5012634;28;20548;-63
2021/09/09 13:02:34;;;;;;;14.13;6.95;;;;;;;;;;5013359;28;20384;-63
2021/09/09 13:04:59;;;;;;;14.35;6.65;;;;;;;;;;5013242;28;20044;-63
2021/09/09 13:07:24;;;;;;;14.98;7.10;;;;;;;;;;5011464;28;20121;-63
2021/09/09 13:09:50;;;;;;;11.25;6.28;;;;;;;;;;5012989;28;20177;-63
2021/09/09 13:12:15;;;;;;;12.98;5.75;;;;;;;;;;5029747;28;20065;-63
2021/09/09 13:14:40;;;;;;;10.43;5.07;;;;;;;;;;5032609;28;20026;-63
2021/09/09 13:17:05;;;;;;;11.82;4.50;;;;;;;;;;5032479;28;20275;-63
2021/09/09 13:19:34;;;;;;;11.48;4.50;;;;;;;;;;5033089;28;20079;-63
2021/09/09 13:21:59;;;;;;;6.68;4.60;;;;;;;;;;5015087;28;20034;-63
2021/09/09 13:24:24;;;;;;;11.52;5.05;;;;;;;;;;5012892;28;20025;-63
2021/09/09 13:26:49;;;;;;;10.70;5.20;;;;;;;;;;5012558;28;20037;-63
2021/09/09 13:29:14;;;;;;;11.70;4.70;;;;;;;;;;5011668;28;20259;-63
2021/09/09 13:31:43;;;;;;;9.57;4.45;;;;;;;;;;5011263;28;20268;-63
2021/09/09 13:34:09;;;;;;;9.65;4.80;;;;;;;;;;5007019;28;20025;-63
2021/09/09 13:36:36;;;;;;;15.52;5.22;;;;;;;;;;5016379;28;20492;-63
2021/09/09 13:39:01;;;;;;;10.48;5.00;;;;;;;;;;5015509;28;20029;-63
2021/09/09 13:41:26;;;;;;;11.55;5.05;;;;;;;;;;5028177;28;20034;-63
2021/09/09 13:43:52;;;;;;;11.25;4.78;;;;;;;;;;5036516;28;20026;-64
2021/09/09 13:46:17;;;;;;;10.05;4.18;;;;;;;;;;5025813;28;20034;-63
2021/09/09 13:48:42;;;;;;;8.27;3.92;;;;;;;;;;5016785;28;20420;-62
2021/09/09 13:51:07;;;;;;;10.18;4.32;;;;;;;;;;5016098;28;20042;-63
2021/09/09 13:53:33;;;;;;;8.03;4.20;;;;;;;;;;5016224;28;20018;-63
2021/09/09 13:55:58;;;;;;;8.10;4.20;;;;;;;;;;5016034;28;20256;-63
2021/09/09 13:58:23;;;;;;;9.90;4.22;;;;;;;;;;5016422;28;20484;-63
2021/09/09 14:00:48;;;;;;;8.65;3.85;;;;;;;;;;5015917;28;20473;-62
2021/09/09 14:03:14;;;;;;;7.55;3.88;;;;;;;;;;5016167;28;20037;-63
2021/09/09 14:05:39;;;;;;;7.05;4.03;;;;;;;;;;5016207;28;20033;-63
2021/09/09 14:08:04;;;;;;;8.38;3.95;;;;;;;;;;5016461;28;20033;-64
2021/09/09 14:10:30;;;;;;;8.45;3.92;;;;;;;;;;5015806;28;20088;-64
2021/09/09 14:12:56;;;;;;;8.27;3.88;;;;;;;;;;5016278;28;20038;-63
2021/09/09 14:15:22;;;;;;;7.40;3.60;;;;;;;;;;5015995;28;20045;-63
2021/09/09 14:17:47;;;;;;;9.40;4.00;;;;;;;;;;5016356;28;20025;-63